sensor_id;sensor_type;location;lat;lon;timestamp;pressure;altitude;pressure_sealevel;temperature;humidity
38616;BME280;24370;51.986;4.666;2022-08-19T00:01:13;101437.88;;;29.82;42.07
38616;BME280;24370;51.986;4.666;2022-08-19T00:03:39;101430.31;;;29.64;42.65
38616;BME280;24370;51.986;4.666;2022-08-19T00:06:04;101426.75;;;29.75;42.06
38616;BME280;24370;51.986;4.666;2022-08-19T00:08:29;101424.09;;;29.64;42.71
38616;BME280;24370;51.986;4.666;2022-08-19T00:10:55;101424.31;;;29.60;42.38
38616;BME280;24370;51.986;4.666;2022-08-19T00:13:21;101425.09;;;29.51;42.74
38616;BME280;24370;51.986;4.666;2022-08-19T00:15:46;101424.53;;;29.80;42.26
38616;BME280;24370;51.986;4.666;2022-08-19T00:18:11;101428.47;;;29.76;42.34
38616;BME280;24370;51.986;4.666;2022-08-19T00:20:37;101432.34;;;29.83;42.06
38616;BME280;24370;51.986;4.666;2022-08-19T00:23:06;101435.81;;;29.74;42.29
38616;BME280;24370;51.986;4.666;2022-08-19T00:25:31;101440.66;;;30.03;41.85
38616;BME280;24370;51.986;4.666;2022-08-19T00:27:57;101430.41;;;29.97;41.81
38616;BME280;24370;51.986;4.666;2022-08-19T00:30:24;101431.88;;;29.78;42.03
38616;BME280;24370;51.986;4.666;2022-08-19T00:32:49;101422.41;;;29.95;41.87
38616;BME280;24370;51.986;4.666;2022-08-19T00:35:15;101423.31;;;29.73;42.33
38616;BME280;24370;51.986;4.666;2022-08-19T00:37:42;101425.16;;;29.72;42.24
38616;BME280;24370;51.986;4.666;2022-08-19T00:40:09;101422.75;;;30.13;41.47
38616;BME280;24370;51.986;4.666;2022-08-19T00:42:35;101426.38;;;29.68;42.79
38616;BME280;24370;51.986;4.666;2022-08-19T00:45:00;101416.47;;;29.69;42.35
38616;BME280;24370;51.986;4.666;2022-08-19T00:47:26;101416.22;;;29.60;42.59
38616;BME280;24370;51.986;4.666;2022-08-19T00:49:55;101418.94;;;29.60;42.45
38616;BME280;24370;51.986;4.666;2022-08-19T00:52:26;101425.53;;;29.68;42.52
38616;BME280;24370;51.986;4.666;2022-08-19T00:54:55;101418.69;;;29.64;42.74
38616;BME280;24370;51.986;4.666;2022-08-19T00:57:26;101422.53;;;30.05;41.41
38616;BME280;24370;51.986;4.666;2022-08-19T00:59:54;101424.59;;;30.01;41.81
38616;BME280;24370;51.986;4.666;2022-08-19T01:02:20;101423.41;;;29.83;42.09
38616;BME280;24370;51.986;4.666;2022-08-19T01:04:46;101436.78;;;29.84;42.24
38616;BME280;24370;51.986;4.666;2022-08-19T01:07:11;101426.16;;;30.36;40.93
38616;BME280;24370;51.986;4.666;2022-08-19T01:09:37;101434.00;;;30.07;41.64
38616;BME280;24370;51.986;4.666;2022-08-19T01:12:03;101441.44;;;29.71;42.27
38616;BME280;24370;51.986;4.666;2022-08-19T01:14:29;101435.97;;;29.50;42.69
38616;BME280;24370;51.986;4.666;2022-08-19T01:16:56;101438.50;;;29.85;41.99
38616;BME280;24370;51.986;4.666;2022-08-19T01:19:33;101432.97;;;30.19;41.05
38616;BME280;24370;51.986;4.666;2022-08-19T01:22:26;101435.84;;;29.51;43.17
38616;BME280;24370;51.986;4.666;2022-08-19T01:24:52;101431.03;;;29.66;42.27
38616;BME280;24370;51.986;4.666;2022-08-19T01:27:17;101426.03;;;29.61;42.57
38616;BME280;24370;51.986;4.666;2022-08-19T01:29:44;101429.84;;;29.25;43.75
38616;BME280;24370;51.986;4.666;2022-08-19T01:32:15;101430.81;;;29.24;43.56
38616;BME280;24370;51.986;4.666;2022-08-19T01:34:41;101428.75;;;29.27;43.44
38616;BME280;24370;51.986;4.666;2022-08-19T01:37:13;101432.66;;;29.23;43.25
38616;BME280;24370;51.986;4.666;2022-08-19T01:39:40;101430.34;;;29.41;42.72
38616;BME280;24370;51.986;4.666;2022-08-19T01:42:06;101433.03;;;29.30;42.89
38616;BME280;24370;51.986;4.666;2022-08-19T01:44:34;101433.03;;;29.41;43.04
38616;BME280;24370;51.986;4.666;2022-08-19T01:47:01;101435.63;;;29.43;43.04
38616;BME280;24370;51.986;4.666;2022-08-19T01:49:26;101443.34;;;29.36;42.84
38616;BME280;24370;51.986;4.666;2022-08-19T01:51:53;101446.59;;;29.17;43.20
38616;BME280;24370;51.986;4.666;2022-08-19T01:54:20;101442.72;;;29.33;43.01
38616;BME280;24370;51.986;4.666;2022-08-19T01:56:46;101438.78;;;29.37;42.86
38616;BME280;24370;51.986;4.666;2022-08-19T01:59:14;101445.16;;;29.24;43.23
38616;BME280;24370;51.986;4.666;2022-08-19T02:01:41;101434.16;;;29.39;42.63
38616;BME280;24370;51.986;4.666;2022-08-19T02:04:06;101428.75;;;29.27;42.97
38616;BME280;24370;51.986;4.666;2022-08-19T02:06:32;101432.56;;;29.36;42.73
38616;BME280;24370;51.986;4.666;2022-08-19T02:08:58;101434.88;;;29.41;42.44
38616;BME280;24370;51.986;4.666;2022-08-19T02:11:27;101433.53;;;29.47;42.59
38616;BME280;24370;51.986;4.666;2022-08-19T02:13:54;101432.91;;;29.20;43.04
38616;BME280;24370;51.986;4.666;2022-08-19T02:16:20;101432.78;;;29.22;42.77
38616;BME280;24370;51.986;4.666;2022-08-19T02:18:46;101447.63;;;29.39;42.51
38616;BME280;24370;51.986;4.666;2022-08-19T02:21:17;101434.16;;;29.27;42.89
38616;BME280;24370;51.986;4.666;2022-08-19T02:23:43;101433.88;;;29.53;42.43
38616;BME280;24370;51.986;4.666;2022-08-19T02:26:09;101439.78;;;29.24;42.85
38616;BME280;24370;51.986;4.666;2022-08-19T02:28:34;101422.03;;;29.44;42.12
38616;BME280;24370;51.986;4.666;2022-08-19T02:31:00;101423.38;;;29.27;42.79
38616;BME280;24370;51.986;4.666;2022-08-19T02:33:26;101429.38;;;29.31;42.96
38616;BME280;24370;51.986;4.666;2022-08-19T02:35:52;101429.38;;;29.31;43.04
38616;BME280;24370;51.986;4.666;2022-08-19T02:38:17;101433.41;;;29.14;43.32
38616;BME280;24370;51.986;4.666;2022-08-19T02:41:05;101425.44;;;29.47;42.68
38616;BME280;24370;51.986;4.666;2022-08-19T02:43:33;101420.41;;;29.53;42.01
38616;BME280;24370;51.986;4.666;2022-08-19T02:46:24;101412.34;;;29.08;42.99
38616;BME280;24370;51.986;4.666;2022-08-19T02:48:52;101415.63;;;29.00;43.14
38616;BME280;24370;51.986;4.666;2022-08-19T02:51:22;101411.97;;;29.01;43.08
38616;BME280;24370;51.986;4.666;2022-08-19T02:53:48;101413.81;;;29.12;42.72
38616;BME280;24370;51.986;4.666;2022-08-19T02:56:14;101404.22;;;29.65;41.87
38616;BME280;24370;51.986;4.666;2022-08-19T02:58:40;101402.09;;;29.47;42.37
38616;BME280;24370;51.986;4.666;2022-08-19T03:01:05;101406.00;;;29.09;43.46
38616;BME280;24370;51.986;4.666;2022-08-19T03:03:31;101404.28;;;28.97;43.54
38616;BME280;24370;51.986;4.666;2022-08-19T03:06:12;101404.53;;;29.05;43.43
38616;BME280;24370;51.986;4.666;2022-08-19T03:08:40;101408.69;;;29.09;43.21
38616;BME280;24370;51.986;4.666;2022-08-19T03:11:10;101403.66;;;28.93;43.73
38616;BME280;24370;51.986;4.666;2022-08-19T03:13:37;101405.25;;;29.07;43.41
38616;BME280;24370;51.986;4.666;2022-08-19T03:16:04;101404.75;;;28.90;43.95
38616;BME280;24370;51.986;4.666;2022-08-19T03:18:29;101400.72;;;29.53;42.42
38616;BME280;24370;51.986;4.666;2022-08-19T03:20:55;101403.03;;;29.23;43.22
38616;BME280;24370;51.986;4.666;2022-08-19T03:23:21;101391.31;;;29.13;43.42
38616;BME280;24370;51.986;4.666;2022-08-19T03:25:48;101395.00;;;29.01;44.29
38616;BME280;24370;51.986;4.666;2022-08-19T03:28:16;101383.25;;;29.36;43.08
38616;BME280;24370;51.986;4.666;2022-08-19T03:30:43;101381.19;;;29.28;43.11
38616;BME280;24370;51.986;4.666;2022-08-19T03:33:19;101388.31;;;29.61;41.62
38616;BME280;24370;51.986;4.666;2022-08-19T03:35:45;101381.53;;;29.35;42.38
38616;BME280;24370;51.986;4.666;2022-08-19T03:38:10;101387.38;;;29.40;42.05
38616;BME280;24370;51.986;4.666;2022-08-19T03:40:36;101378.59;;;29.15;42.52
38616;BME280;24370;51.986;4.666;2022-08-19T03:43:02;101387.41;;;29.51;41.69
38616;BME280;24370;51.986;4.666;2022-08-19T03:45:28;101380.78;;;29.44;41.75
38616;BME280;24370;51.986;4.666;2022-08-19T03:47:53;101396.69;;;28.79;43.60
38616;BME280;24370;51.986;4.666;2022-08-19T03:50:19;101396.69;;;28.68;43.21
38616;BME280;24370;51.986;4.666;2022-08-19T03:52:51;101405.00;;;28.76;43.46
38616;BME280;24370;51.986;4.666;2022-08-19T03:55:17;101408.41;;;29.23;42.33
38616;BME280;24370;51.986;4.666;2022-08-19T03:57:43;101399.63;;;28.99;42.64
38616;BME280;24370;51.986;4.666;2022-08-19T04:00:11;101401.13;;;29.14;41.93
38616;BME280;24370;51.986;4.666;2022-08-19T04:02:37;101403.31;;;29.09;42.15
38616;BME280;24370;51.986;4.666;2022-08-19T04:05:02;101407.94;;;28.73;43.35
38616;BME280;24370;51.986;4.666;2022-08-19T04:07:28;101413.31;;;28.73;43.43
38616;BME280;24370;51.986;4.666;2022-08-19T04:09:53;101407.31;;;28.81;42.91
38616;BME280;24370;51.986;4.666;2022-08-19T04:12:18;101413.59;;;28.57;43.74
38616;BME280;24370;51.986;4.666;2022-08-19T04:14:45;101410.00;;;28.81;42.98
38616;BME280;24370;51.986;4.666;2022-08-19T04:17:11;101405.59;;;28.68;43.48
38616;BME280;24370;51.986;4.666;2022-08-19T04:19:40;101406.88;;;28.51;43.92
38616;BME280;24370;51.986;4.666;2022-08-19T04:22:06;101415.44;;;28.56;43.82
38616;BME280;24370;51.986;4.666;2022-08-19T04:24:33;101405.47;;;28.70;44.03
38616;BME280;24370;51.986;4.666;2022-08-19T04:27:00;101404.16;;;27.91;45.65
38616;BME280;24370;51.986;4.666;2022-08-19T04:29:26;101415.75;;;28.65;43.99
38616;BME280;24370;51.986;4.666;2022-08-19T04:31:53;101418.44;;;28.40;45.09
38616;BME280;24370;51.986;4.666;2022-08-19T04:34:20;101413.88;;;28.18;45.34
38616;BME280;24370;51.986;4.666;2022-08-19T04:36:47;101412.75;;;28.56;44.90
38616;BME280;24370;51.986;4.666;2022-08-19T04:39:16;101403.16;;;28.76;43.86
38616;BME280;24370;51.986;4.666;2022-08-19T04:41:42;101417.44;;;27.45;48.23
38616;BME280;24370;51.986;4.666;2022-08-19T04:44:27;101422.75;;;26.95;49.82
38616;BME280;24370;51.986;4.666;2022-08-19T04:46:55;101419.13;;;27.58;48.35
38616;BME280;24370;51.986;4.666;2022-08-19T04:49:22;101418.22;;;27.71;48.18
38616;BME280;24370;51.986;4.666;2022-08-19T04:51:48;101417.47;;;27.06;50.84
38616;BME280;24370;51.986;4.666;2022-08-19T04:54:16;101422.75;;;27.20;50.81
38616;BME280;24370;51.986;4.666;2022-08-19T04:56:42;101426.59;;;27.16;51.05
38616;BME280;24370;51.986;4.666;2022-08-19T04:59:07;101420.28;;;27.67;50.29
38616;BME280;24370;51.986;4.666;2022-08-19T05:01:33;101427.28;;;28.54;47.31
38616;BME280;24370;51.986;4.666;2022-08-19T05:04:00;101429.38;;;27.77;50.39
38616;BME280;24370;51.986;4.666;2022-08-19T05:06:27;101425.00;;;28.60;47.63
38616;BME280;24370;51.986;4.666;2022-08-19T05:08:54;101425.91;;;27.51;50.75
38616;BME280;24370;51.986;4.666;2022-08-19T05:11:25;101427.59;;;28.02;49.51
38616;BME280;24370;51.986;4.666;2022-08-19T05:13:52;101425.38;;;27.83;49.89
38616;BME280;24370;51.986;4.666;2022-08-19T05:16:18;101426.81;;;28.24;48.47
38616;BME280;24370;51.986;4.666;2022-08-19T05:18:45;101434.63;;;27.79;49.62
38616;BME280;24370;51.986;4.666;2022-08-19T05:21:29;101422.63;;;27.22;51.83
38616;BME280;24370;51.986;4.666;2022-08-19T05:24:14;101429.41;;;27.02;52.89
38616;BME280;24370;51.986;4.666;2022-08-19T05:26:42;101426.66;;;27.90;49.98
38616;BME280;24370;51.986;4.666;2022-08-19T05:29:08;101427.47;;;28.75;47.57
38616;BME280;24370;51.986;4.666;2022-08-19T05:31:34;101422.38;;;29.17;46.44
38616;BME280;24370;51.986;4.666;2022-08-19T05:34:01;101429.66;;;29.83;44.66
38616;BME280;24370;51.986;4.666;2022-08-19T05:36:28;101430.09;;;28.52;48.33
38616;BME280;24370;51.986;4.666;2022-08-19T05:38:54;101418.47;;;29.55;45.50
38616;BME280;24370;51.986;4.666;2022-08-19T05:41:22;101425.09;;;29.28;45.25
38616;BME280;24370;51.986;4.666;2022-08-19T05:43:56;101418.75;;;29.96;44.95
38616;BME280;24370;51.986;4.666;2022-08-19T05:46:23;101414.25;;;29.74;44.67
38616;BME280;24370;51.986;4.666;2022-08-19T05:48:49;101422.38;;;29.17;46.43
38616;BME280;24370;51.986;4.666;2022-08-19T05:51:15;101419.69;;;29.51;45.44
38616;BME280;24370;51.986;4.666;2022-08-19T05:53:41;101419.66;;;30.39;43.72
38616;BME280;24370;51.986;4.666;2022-08-19T05:56:10;101435.75;;;28.01;49.61
38616;BME280;24370;51.986;4.666;2022-08-19T05:58:36;101424.28;;;28.70;48.54
38616;BME280;24370;51.986;4.666;2022-08-19T06:01:03;101421.66;;;29.49;46.47
38616;BME280;24370;51.986;4.666;2022-08-19T06:03:35;101420.19;;;29.22;47.64
38616;BME280;24370;51.986;4.666;2022-08-19T06:06:03;101417.50;;;29.45;46.49
38616;BME280;24370;51.986;4.666;2022-08-19T06:08:28;101424.28;;;30.48;43.57
38616;BME280;24370;51.986;4.666;2022-08-19T06:10:55;101420.44;;;29.42;45.75
38616;BME280;24370;51.986;4.666;2022-08-19T06:13:21;101412.81;;;30.35;44.80
38616;BME280;24370;51.986;4.666;2022-08-19T06:15:48;101417.28;;;29.92;45.20
38616;BME280;24370;51.986;4.666;2022-08-19T06:18:15;101417.97;;;30.38;43.68
38616;BME280;24370;51.986;4.666;2022-08-19T06:20:41;101422.81;;;29.79;45.12
38616;BME280;24370;51.986;4.666;2022-08-19T06:23:06;101426.78;;;29.52;45.81
38616;BME280;24370;51.986;4.666;2022-08-19T06:25:32;101427.28;;;30.34;44.24
38616;BME280;24370;51.986;4.666;2022-08-19T06:27:58;101427.72;;;30.50;43.95
38616;BME280;24370;51.986;4.666;2022-08-19T06:30:23;101432.44;;;30.79;44.53
38616;BME280;24370;51.986;4.666;2022-08-19T06:32:48;101434.88;;;29.18;46.70
38616;BME280;24370;51.986;4.666;2022-08-19T06:35:14;101421.00;;;30.66;44.08
38616;BME280;24370;51.986;4.666;2022-08-19T06:37:40;101432.31;;;29.39;46.37
38616;BME280;24370;51.986;4.666;2022-08-19T06:40:06;101422.22;;;31.44;42.13
38616;BME280;24370;51.986;4.666;2022-08-19T06:42:34;101416.88;;;30.92;43.01
38616;BME280;24370;51.986;4.666;2022-08-19T06:45:00;101426.84;;;30.50;43.77
38616;BME280;24370;51.986;4.666;2022-08-19T06:47:28;101418.41;;;30.43;43.23
38616;BME280;24370;51.986;4.666;2022-08-19T06:49:56;101420.47;;;30.72;43.76
38616;BME280;24370;51.986;4.666;2022-08-19T06:52:37;101418.94;;;28.81;49.02
38616;BME280;24370;51.986;4.666;2022-08-19T06:55:05;101416.19;;;30.48;44.90
38616;BME280;24370;51.986;4.666;2022-08-19T06:57:30;101421.56;;;31.21;42.99
38616;BME280;24370;51.986;4.666;2022-08-19T06:59:58;101418.72;;;31.23;43.00
38616;BME280;24370;51.986;4.666;2022-08-19T07:02:25;101429.97;;;30.45;43.84
38616;BME280;24370;51.986;4.666;2022-08-19T07:04:52;101434.56;;;29.89;45.04
38616;BME280;24370;51.986;4.666;2022-08-19T07:07:19;101432.88;;;29.66;45.96
38616;BME280;24370;51.986;4.666;2022-08-19T07:09:45;101439.28;;;30.83;44.17
38616;BME280;24370;51.986;4.666;2022-08-19T07:12:12;101440.38;;;30.38;45.06
38616;BME280;24370;51.986;4.666;2022-08-19T07:14:38;101442.97;;;31.44;43.23
38616;BME280;24370;51.986;4.666;2022-08-19T07:17:07;101451.66;;;31.07;43.38
38616;BME280;24370;51.986;4.666;2022-08-19T07:19:32;101450.44;;;30.04;45.79
38616;BME280;24370;51.986;4.666;2022-08-19T07:21:58;101451.66;;;30.32;46.03
38616;BME280;24370;51.986;4.666;2022-08-19T07:24:26;101451.28;;;30.37;45.36
38616;BME280;24370;51.986;4.666;2022-08-19T07:26:54;101447.56;;;31.53;42.95
38616;BME280;24370;51.986;4.666;2022-08-19T07:29:22;101441.13;;;32.63;41.52
38616;BME280;24370;51.986;4.666;2022-08-19T07:31:52;101438.47;;;35.09;36.03
38616;BME280;24370;51.986;4.666;2022-08-19T07:34:18;101442.44;;;35.23;34.91
38616;BME280;24370;51.986;4.666;2022-08-19T07:36:44;101451.69;;;32.27;39.70
38616;BME280;24370;51.986;4.666;2022-08-19T07:39:22;101438.97;;;33.24;39.36
38616;BME280;24370;51.986;4.666;2022-08-19T07:41:48;101439.66;;;33.82;37.55
38616;BME280;24370;51.986;4.666;2022-08-19T07:44:15;101443.16;;;33.92;36.86
38616;BME280;24370;51.986;4.666;2022-08-19T07:46:43;101439.25;;;36.86;32.96
38616;BME280;24370;51.986;4.666;2022-08-19T07:49:10;101439.16;;;34.59;35.40
38616;BME280;24370;51.986;4.666;2022-08-19T07:51:41;101443.59;;;35.63;34.98
38616;BME280;24370;51.986;4.666;2022-08-19T07:54:07;101451.13;;;35.70;34.69
38616;BME280;24370;51.986;4.666;2022-08-19T07:56:32;101458.03;;;33.33;38.61
38616;BME280;24370;51.986;4.666;2022-08-19T07:58:57;101465.06;;;32.39;39.44
38616;BME280;24370;51.986;4.666;2022-08-19T08:01:25;101466.16;;;33.60;37.67
38616;BME280;24370;51.986;4.666;2022-08-19T08:03:55;101474.66;;;31.42;41.07
38616;BME280;24370;51.986;4.666;2022-08-19T08:06:40;101473.25;;;32.86;38.58
38616;BME280;24370;51.986;4.666;2022-08-19T08:09:29;101474.16;;;32.77;38.85
38616;BME280;24370;51.986;4.666;2022-08-19T08:11:58;101478.53;;;32.00;40.88
38616;BME280;24370;51.986;4.666;2022-08-19T08:14:31;101480.13;;;32.22;40.28
38616;BME280;24370;51.986;4.666;2022-08-19T08:16:58;101476.28;;;30.50;43.98
38616;BME280;24370;51.986;4.666;2022-08-19T08:19:25;101477.31;;;32.43;40.36
38616;BME280;24370;51.986;4.666;2022-08-19T08:21:55;101476.13;;;31.96;41.31
38616;BME280;24370;51.986;4.666;2022-08-19T08:24:21;101479.34;;;31.40;42.32
38616;BME280;24370;51.986;4.666;2022-08-19T08:26:46;101485.84;;;31.68;41.32
38616;BME280;24370;51.986;4.666;2022-08-19T08:29:13;101486.16;;;33.12;39.28
38616;BME280;24370;51.986;4.666;2022-08-19T08:31:40;101481.84;;;32.72;39.18
38616;BME280;24370;51.986;4.666;2022-08-19T08:34:06;101486.41;;;33.56;38.46
38616;BME280;24370;51.986;4.666;2022-08-19T08:36:31;101493.19;;;33.05;39.08
38616;BME280;24370;51.986;4.666;2022-08-19T08:38:59;101492.47;;;31.54;42.23
38616;BME280;24370;51.986;4.666;2022-08-19T08:43:53;101496.66;;;30.85;42.96
38616;BME280;24370;51.986;4.666;2022-08-19T08:46:39;101504.97;;;33.13;38.83
38616;BME280;24370;51.986;4.666;2022-08-19T08:52:03;101503.72;;;31.90;40.86
38616;BME280;24370;51.986;4.666;2022-08-19T08:54:42;101502.38;;;31.13;42.17
38616;BME280;24370;51.986;4.666;2022-08-19T08:57:20;101498.06;;;32.42;40.75
38616;BME280;24370;51.986;4.666;2022-08-19T08:59:50;101509.13;;;33.08;38.81
38616;BME280;24370;51.986;4.666;2022-08-19T09:02:18;101507.09;;;33.29;38.10
38616;BME280;24370;51.986;4.666;2022-08-19T09:04:45;101492.75;;;34.39;36.89
38616;BME280;24370;51.986;4.666;2022-08-19T09:10:06;101502.34;;;35.48;33.97
38616;BME280;24370;51.986;4.666;2022-08-19T09:12:52;101493.16;;;37.63;31.61
38616;BME280;24370;51.986;4.666;2022-08-19T09:15:32;101504.63;;;36.37;32.55
38616;BME280;24370;51.986;4.666;2022-08-19T09:18:01;101502.13;;;34.44;35.86
38616;BME280;24370;51.986;4.666;2022-08-19T09:20:28;101495.88;;;37.63;31.05
38616;BME280;24370;51.986;4.666;2022-08-19T09:22:53;101506.91;;;37.39;31.75
38616;BME280;24370;51.986;4.666;2022-08-19T09:25:21;101504.88;;;39.63;28.60
38616;BME280;24370;51.986;4.666;2022-08-19T09:27:48;101505.22;;;39.75;28.34
38616;BME280;24370;51.986;4.666;2022-08-19T09:30:23;101508.97;;;37.99;30.13
38616;BME280;24370;51.986;4.666;2022-08-19T09:32:50;101501.75;;;37.44;30.90
38616;BME280;24370;51.986;4.666;2022-08-19T09:35:19;101500.63;;;38.71;29.40
38616;BME280;24370;51.986;4.666;2022-08-19T09:37:47;101491.78;;;39.13;29.16
38616;BME280;24370;51.986;4.666;2022-08-19T09:40:14;101496.41;;;37.90;30.10
38616;BME280;24370;51.986;4.666;2022-08-19T09:42:39;101500.66;;;38.62;29.38
38616;BME280;24370;51.986;4.666;2022-08-19T09:45:05;101501.03;;;36.77;31.73
38616;BME280;24370;51.986;4.666;2022-08-19T09:47:30;101495.41;;;36.21;32.80
38616;BME280;24370;51.986;4.666;2022-08-19T09:49:57;101504.97;;;36.66;32.46
38616;BME280;24370;51.986;4.666;2022-08-19T09:52:23;101501.25;;;35.75;32.80
38616;BME280;24370;51.986;4.666;2022-08-19T09:54:52;101498.44;;;34.72;34.90
38616;BME280;24370;51.986;4.666;2022-08-19T09:57:17;101495.75;;;33.81;36.65
38616;BME280;24370;51.986;4.666;2022-08-19T09:59:43;101502.03;;;34.18;36.77
38616;BME280;24370;51.986;4.666;2022-08-19T10:02:09;101495.13;;;34.06;36.78
38616;BME280;24370;51.986;4.666;2022-08-19T10:04:35;101511.16;;;33.71;37.06
38616;BME280;24370;51.986;4.666;2022-08-19T10:07:19;101503.59;;;33.75;37.79
38616;BME280;24370;51.986;4.666;2022-08-19T10:09:45;101503.41;;;31.74;41.20
38616;BME280;24370;51.986;4.666;2022-08-19T10:12:10;101500.72;;;33.76;37.55
38616;BME280;24370;51.986;4.666;2022-08-19T10:14:37;101508.78;;;32.44;40.38
38616;BME280;24370;51.986;4.666;2022-08-19T10:17:03;101505.78;;;32.47;41.35
38616;BME280;24370;51.986;4.666;2022-08-19T10:19:28;101499.25;;;33.17;40.48
38616;BME280;24370;51.986;4.666;2022-08-19T10:22:03;101505.44;;;34.20;38.41
38616;BME280;24370;51.986;4.666;2022-08-19T10:24:29;101495.19;;;33.78;39.33
38616;BME280;24370;51.986;4.666;2022-08-19T10:26:56;101499.47;;;33.43;39.39
38616;BME280;24370;51.986;4.666;2022-08-19T10:29:21;101497.22;;;34.12;39.34
38616;BME280;24370;51.986;4.666;2022-08-19T10:31:47;101501.66;;;33.29;40.19
38616;BME280;24370;51.986;4.666;2022-08-19T10:34:12;101494.75;;;33.73;39.86
38616;BME280;24370;51.986;4.666;2022-08-19T10:36:38;101500.19;;;34.99;37.49
38616;BME280;24370;51.986;4.666;2022-08-19T10:39:06;101492.25;;;33.34;39.02
38616;BME280;24370;51.986;4.666;2022-08-19T10:41:34;101502.06;;;32.68;40.75
38616;BME280;24370;51.986;4.666;2022-08-19T10:44:04;101500.63;;;32.63;40.41
38616;BME280;24370;51.986;4.666;2022-08-19T10:46:31;101498.91;;;33.02;39.34
38616;BME280;24370;51.986;4.666;2022-08-19T10:48:59;101499.97;;;34.74;36.85
38616;BME280;24370;51.986;4.666;2022-08-19T10:51:24;101488.22;;;35.44;35.53
38616;BME280;24370;51.986;4.666;2022-08-19T10:54:09;101496.06;;;35.98;35.10
38616;BME280;24370;51.986;4.666;2022-08-19T10:56:35;101486.97;;;35.04;35.88
38616;BME280;24370;51.986;4.666;2022-08-19T10:59:24;101486.56;;;35.60;35.05
38616;BME280;24370;51.986;4.666;2022-08-19T11:01:53;101489.09;;;34.92;35.28
38616;BME280;24370;51.986;4.666;2022-08-19T11:04:19;101481.59;;;34.42;35.97
38616;BME280;24370;51.986;4.666;2022-08-19T11:06:47;101487.97;;;34.32;36.58
38616;BME280;24370;51.986;4.666;2022-08-19T11:09:15;101484.75;;;35.77;34.61
38616;BME280;24370;51.986;4.666;2022-08-19T11:11:41;101485.56;;;34.74;34.82
38616;BME280;24370;51.986;4.666;2022-08-19T11:14:14;101478.78;;;35.30;34.49
38616;BME280;24370;51.986;4.666;2022-08-19T11:16:41;101488.81;;;34.95;33.89
38616;BME280;24370;51.986;4.666;2022-08-19T11:19:09;101490.09;;;34.47;35.67
38616;BME280;24370;51.986;4.666;2022-08-19T11:21:40;101494.19;;;33.97;35.78
38616;BME280;24370;51.986;4.666;2022-08-19T11:24:11;101494.78;;;33.91;36.31
38616;BME280;24370;51.986;4.666;2022-08-19T11:26:38;101500.78;;;32.81;37.80
38616;BME280;24370;51.986;4.666;2022-08-19T11:29:04;101492.72;;;34.03;36.37
38616;BME280;24370;51.986;4.666;2022-08-19T11:31:33;101499.44;;;33.05;37.80
38616;BME280;24370;51.986;4.666;2022-08-19T11:34:02;101500.47;;;32.16;40.41
38616;BME280;24370;51.986;4.666;2022-08-19T11:36:29;101506.53;;;31.17;42.35
38616;BME280;24370;51.986;4.666;2022-08-19T11:38:57;101503.66;;;31.71;42.32
38616;BME280;24370;51.986;4.666;2022-08-19T11:41:24;101505.13;;;33.12;39.90
38616;BME280;24370;51.986;4.666;2022-08-19T11:43:50;101498.66;;;33.60;38.73
38616;BME280;24370;51.986;4.666;2022-08-19T11:46:17;101497.78;;;32.26;40.86
38616;BME280;24370;51.986;4.666;2022-08-19T11:48:43;101491.63;;;33.40;39.25
38616;BME280;24370;51.986;4.666;2022-08-19T11:51:14;101486.47;;;34.38;37.93
38616;BME280;24370;51.986;4.666;2022-08-19T11:53:40;101496.91;;;32.94;38.82
38616;BME280;24370;51.986;4.666;2022-08-19T11:56:07;101496.91;;;34.87;37.21
38616;BME280;24370;51.986;4.666;2022-08-19T11:58:34;101500.53;;;33.22;38.91
38616;BME280;24370;51.986;4.666;2022-08-19T12:01:00;101499.78;;;33.68;37.59
38616;BME280;24370;51.986;4.666;2022-08-19T12:03:26;101500.88;;;33.47;37.71
38616;BME280;24370;51.986;4.666;2022-08-19T12:05:51;101508.66;;;33.22;38.09
38616;BME280;24370;51.986;4.666;2022-08-19T12:08:17;101500.69;;;33.86;37.78
38616;BME280;24370;51.986;4.666;2022-08-19T12:10:43;101495.16;;;33.50;38.19
38616;BME280;24370;51.986;4.666;2022-08-19T12:13:10;101499.34;;;34.54;36.11
38616;BME280;24370;51.986;4.666;2022-08-19T12:15:38;101496.75;;;35.49;35.12
38616;BME280;24370;51.986;4.666;2022-08-19T12:18:06;101507.56;;;33.53;37.29
38616;BME280;24370;51.986;4.666;2022-08-19T12:20:35;101502.13;;;31.88;39.90
38616;BME280;24370;51.986;4.666;2022-08-19T12:23:01;101502.19;;;32.17;39.19
38616;BME280;24370;51.986;4.666;2022-08-19T12:25:26;101506.06;;;32.44;38.33
38616;BME280;24370;51.986;4.666;2022-08-19T12:27:51;101496.78;;;33.43;36.54
38616;BME280;24370;51.986;4.666;2022-08-19T12:30:17;101494.53;;;34.48;35.41
38616;BME280;24370;51.986;4.666;2022-08-19T12:32:42;101495.81;;;35.32;34.40
38616;BME280;24370;51.986;4.666;2022-08-19T12:35:08;101496.00;;;35.13;34.24
38616;BME280;24370;51.986;4.666;2022-08-19T12:37:34;101490.81;;;35.62;33.62
38616;BME280;24370;51.986;4.666;2022-08-19T12:40:00;101495.66;;;32.69;37.99
38616;BME280;24370;51.986;4.666;2022-08-19T12:42:26;101483.03;;;33.54;36.08
38616;BME280;24370;51.986;4.666;2022-08-19T12:44:51;101492.22;;;34.17;36.04
38616;BME280;24370;51.986;4.666;2022-08-19T12:47:17;101492.47;;;34.86;35.18
38616;BME280;24370;51.986;4.666;2022-08-19T12:49:43;101500.06;;;32.79;38.17
38616;BME280;24370;51.986;4.666;2022-08-19T12:52:09;101492.59;;;34.40;37.47
38616;BME280;24370;51.986;4.666;2022-08-19T12:54:36;101486.97;;;34.78;37.65
38616;BME280;24370;51.986;4.666;2022-08-19T12:57:06;101488.19;;;34.39;38.82
38616;BME280;24370;51.986;4.666;2022-08-19T12:59:33;101496.94;;;34.95;40.83
38616;BME280;24370;51.986;4.666;2022-08-19T13:01:59;101493.22;;;35.31;39.40